sensor_id;sensor_type;location;lat;lon;timestamp;temperature;humidity
74657;DHT22;63185;45.642;13.764;2023-02-23T00:00:28;12.50;71.60
74657;DHT22;63185;45.642;13.764;2023-02-23T00:02:57;12.50;71.40
74657;DHT22;63185;45.642;13.764;2023-02-23T00:05:26;12.60;71.20
74657;DHT22;63185;45.642;13.764;2023-02-23T00:07:53;12.60;71.10
74657;DHT22;63185;45.642;13.764;2023-02-23T00:10:19;12.60;71.30
74657;DHT22;63185;45.642;13.764;2023-02-23T00:12:47;12.60;71.20
74657;DHT22;63185;45.642;13.764;2023-02-23T00:15:15;12.60;71.30
74657;DHT22;63185;45.642;13.764;2023-02-23T00:17:41;12.60;71.10
74657;DHT22;63185;45.642;13.764;2023-02-23T00:20:09;12.70;71.00
74657;DHT22;63185;45.642;13.764;2023-02-23T00:22:39;12.70;70.80
74657;DHT22;63185;45.642;13.764;2023-02-23T00:25:09;12.70;70.50
74657;DHT22;63185;45.642;13.764;2023-02-23T00:27:36;12.70;70.10
74657;DHT22;63185;45.642;13.764;2023-02-23T00:30:10;12.80;70.20
74657;DHT22;63185;45.642;13.764;2023-02-23T00:32:36;12.70;70.60
74657;DHT22;63185;45.642;13.764;2023-02-23T00:35:01;12.70;70.70
74657;DHT22;63185;45.642;13.764;2023-02-23T00:37:27;12.70;70.90
74657;DHT22;63185;45.642;13.764;2023-02-23T00:39:56;12.60;70.90
74657;DHT22;63185;45.642;13.764;2023-02-23T00:42:22;12.60;71.10
74657;DHT22;63185;45.642;13.764;2023-02-23T00:44:49;12.60;71.20
74657;DHT22;63185;45.642;13.764;2023-02-23T00:47:15;12.60;71.20
74657;DHT22;63185;45.642;13.764;2023-02-23T00:49:40;12.60;71.30
74657;DHT22;63185;45.642;13.764;2023-02-23T00:52:10;12.60;71.40
74657;DHT22;63185;45.642;13.764;2023-02-23T00:54:35;12.60;71.40
74657;DHT22;63185;45.642;13.764;2023-02-23T00:57:02;12.50;71.30
74657;DHT22;63185;45.642;13.764;2023-02-23T00:59:28;12.50;71.50
74657;DHT22;63185;45.642;13.764;2023-02-23T01:01:54;12.50;71.50
74657;DHT22;63185;45.642;13.764;2023-02-23T01:04:20;12.50;71.60
74657;DHT22;63185;45.642;13.764;2023-02-23T01:06:47;12.40;71.60
74657;DHT22;63185;45.642;13.764;2023-02-23T01:09:15;12.40;71.50
74657;DHT22;63185;45.642;13.764;2023-02-23T01:11:46;12.30;72.10
74657;DHT22;63185;45.642;13.764;2023-02-23T01:14:12;12.30;71.90
74657;DHT22;63185;45.642;13.764;2023-02-23T01:16:37;12.20;72.40
74657;DHT22;63185;45.642;13.764;2023-02-23T01:19:05;12.30;72.50
74657;DHT22;63185;45.642;13.764;2023-02-23T01:21:39;12.30;73.20
74657;DHT22;63185;45.642;13.764;2023-02-23T01:24:07;12.20;74.00
74657;DHT22;63185;45.642;13.764;2023-02-23T01:26:36;12.10;74.50
74657;DHT22;63185;45.642;13.764;2023-02-23T01:29:12;12.00;75.40
74657;DHT22;63185;45.642;13.764;2023-02-23T01:31:41;12.00;75.20
74657;DHT22;63185;45.642;13.764;2023-02-23T01:34:10;12.00;74.80
74657;DHT22;63185;45.642;13.764;2023-02-23T01:36:38;12.00;74.30
74657;DHT22;63185;45.642;13.764;2023-02-23T01:39:05;12.00;74.40
74657;DHT22;63185;45.642;13.764;2023-02-23T01:41:34;12.00;74.10
74657;DHT22;63185;45.642;13.764;2023-02-23T01:46:46;12.10;73.30
74657;DHT22;63185;45.642;13.764;2023-02-23T01:49:22;12.20;73.30
74657;DHT22;63185;45.642;13.764;2023-02-23T01:52:09;12.20;72.40
74657;DHT22;63185;45.642;13.764;2023-02-23T01:54:55;12.20;72.10
74657;DHT22;63185;45.642;13.764;2023-02-23T01:57:22;12.20;71.60
74657;DHT22;63185;45.642;13.764;2023-02-23T01:59:51;12.20;71.80
74657;DHT22;63185;45.642;13.764;2023-02-23T02:02:20;12.20;72.00
74657;DHT22;63185;45.642;13.764;2023-02-23T02:04:47;12.20;71.90
74657;DHT22;63185;45.642;13.764;2023-02-23T02:07:22;12.20;71.50
74657;DHT22;63185;45.642;13.764;2023-02-23T02:09:52;12.20;71.80
74657;DHT22;63185;45.642;13.764;2023-02-23T02:12:52;12.20;71.90
74657;DHT22;63185;45.642;13.764;2023-02-23T02:15:20;12.20;71.30
74657;DHT22;63185;45.642;13.764;2023-02-23T02:43:27;12.10;71.70
74657;DHT22;63185;45.642;13.764;2023-02-23T02:46:17;12.10;71.60
74657;DHT22;63185;45.642;13.764;2023-02-23T02:49:44;12.20;71.70
74657;DHT22;63185;45.642;13.764;2023-02-23T02:57:01;12.20;71.70
74657;DHT22;63185;45.642;13.764;2023-02-23T02:59:29;12.10;71.90
74657;DHT22;63185;45.642;13.764;2023-02-23T03:02:18;12.20;71.70
74657;DHT22;63185;45.642;13.764;2023-02-23T03:05:16;12.20;72.00
74657;DHT22;63185;45.642;13.764;2023-02-23T03:10:59;12.20;71.70
74657;DHT22;63185;45.642;13.764;2023-02-23T03:17:29;12.20;72.30
74657;DHT22;63185;45.642;13.764;2023-02-23T03:23:27;12.20;72.20
74657;DHT22;63185;45.642;13.764;2023-02-23T03:26:28;12.20;72.20
74657;DHT22;63185;45.642;13.764;2023-02-23T03:35:24;12.20;72.90
74657;DHT22;63185;45.642;13.764;2023-02-23T03:38:21;12.20;73.00
74657;DHT22;63185;45.642;13.764;2023-02-23T03:41:12;12.20;72.70
74657;DHT22;63185;45.642;13.764;2023-02-23T03:44:01;12.20;72.70
74657;DHT22;63185;45.642;13.764;2023-02-23T03:46:46;12.20;72.90
74657;DHT22;63185;45.642;13.764;2023-02-23T03:49:35;12.20;72.60
74657;DHT22;63185;45.642;13.764;2023-02-23T03:52:37;12.20;72.30
74657;DHT22;63185;45.642;13.764;2023-02-23T03:55:26;12.20;72.40
74657;DHT22;63185;45.642;13.764;2023-02-23T03:58:12;12.20;72.00
74657;DHT22;63185;45.642;13.764;2023-02-23T04:01:00;12.30;71.80
74657;DHT22;63185;45.642;13.764;2023-02-23T04:03:47;12.30;72.10
74657;DHT22;63185;45.642;13.764;2023-02-23T04:06:37;12.30;72.20
74657;DHT22;63185;45.642;13.764;2023-02-23T04:09:22;12.30;72.30
74657;DHT22;63185;45.642;13.764;2023-02-23T04:12:26;12.30;72.50
74657;DHT22;63185;45.642;13.764;2023-02-23T04:17:51;12.30;72.50
74657;DHT22;63185;45.642;13.764;2023-02-23T04:20:17;12.30;72.60
74657;DHT22;63185;45.642;13.764;2023-02-23T04:22:44;12.40;72.90
74657;DHT22;63185;45.642;13.764;2023-02-23T04:25:10;12.30;73.00
74657;DHT22;63185;45.642;13.764;2023-02-23T04:27:37;12.30;73.10
74657;DHT22;63185;45.642;13.764;2023-02-23T04:30:04;12.30;73.10
74657;DHT22;63185;45.642;13.764;2023-02-23T04:32:30;12.30;73.30
74657;DHT22;63185;45.642;13.764;2023-02-23T04:34:56;12.30;73.50
74657;DHT22;63185;45.642;13.764;2023-02-23T04:37:21;12.30;73.80
74657;DHT22;63185;45.642;13.764;2023-02-23T04:39:47;12.30;73.90
74657;DHT22;63185;45.642;13.764;2023-02-23T04:42:17;12.40;73.60
74657;DHT22;63185;45.642;13.764;2023-02-23T04:44:43;12.40;73.60
74657;DHT22;63185;45.642;13.764;2023-02-23T04:47:10;12.30;73.80
74657;DHT22;63185;45.642;13.764;2023-02-23T04:49:35;12.30;73.80
74657;DHT22;63185;45.642;13.764;2023-02-23T04:52:02;12.30;73.80
74657;DHT22;63185;45.642;13.764;2023-02-23T04:54:28;12.30;73.80
74657;DHT22;63185;45.642;13.764;2023-02-23T04:56:54;12.40;73.70
74657;DHT22;63185;45.642;13.764;2023-02-23T04:59:19;12.30;73.80
74657;DHT22;63185;45.642;13.764;2023-02-23T05:01:45;12.40;73.70
74657;DHT22;63185;45.642;13.764;2023-02-23T05:04:11;12.30;73.80
74657;DHT22;63185;45.642;13.764;2023-02-23T05:06:36;12.40;73.80
74657;DHT22;63185;45.642;13.764;2023-02-23T05:09:02;12.40;73.60
74657;DHT22;63185;45.642;13.764;2023-02-23T05:11:29;12.40;73.60
74657;DHT22;63185;45.642;13.764;2023-02-23T05:13:55;12.40;73.60
74657;DHT22;63185;45.642;13.764;2023-02-23T05:16:21;12.40;73.50
74657;DHT22;63185;45.642;13.764;2023-02-23T05:18:46;12.40;73.40
74657;DHT22;63185;45.642;13.764;2023-02-23T05:21:12;12.40;73.40
74657;DHT22;63185;45.642;13.764;2023-02-23T05:23:38;12.40;73.30
74657;DHT22;63185;45.642;13.764;2023-02-23T05:26:07;12.40;73.20
74657;DHT22;63185;45.642;13.764;2023-02-23T05:28:34;12.40;73.30
74657;DHT22;63185;45.642;13.764;2023-02-23T05:31:01;12.40;73.30
74657;DHT22;63185;45.642;13.764;2023-02-23T05:33:31;12.40;72.90
74657;DHT22;63185;45.642;13.764;2023-02-23T05:35:57;12.40;72.80
74657;DHT22;63185;45.642;13.764;2023-02-23T05:38:23;12.50;72.60
74657;DHT22;63185;45.642;13.764;2023-02-23T05:40:49;12.40;72.60
74657;DHT22;63185;45.642;13.764;2023-02-23T05:43:14;12.40;72.60
74657;DHT22;63185;45.642;13.764;2023-02-23T05:45:41;12.50;72.40
74657;DHT22;63185;45.642;13.764;2023-02-23T05:48:08;12.50;72.50
74657;DHT22;63185;45.642;13.764;2023-02-23T05:50:34;12.40;72.90
74657;DHT22;63185;45.642;13.764;2023-02-23T05:53:00;12.40;73.00
74657;DHT22;63185;45.642;13.764;2023-02-23T05:55:26;12.40;72.90
74657;DHT22;63185;45.642;13.764;2023-02-23T05:57:52;12.40;72.60
74657;DHT22;63185;45.642;13.764;2023-02-23T06:00:17;12.40;72.40
74657;DHT22;63185;45.642;13.764;2023-02-23T06:02:43;12.40;72.30
74657;DHT22;63185;45.642;13.764;2023-02-23T06:05:10;12.30;72.30
74657;DHT22;63185;45.642;13.764;2023-02-23T06:07:37;12.40;72.00
74657;DHT22;63185;45.642;13.764;2023-02-23T06:10:03;12.40;71.80
74657;DHT22;63185;45.642;13.764;2023-02-23T06:12:30;12.40;71.50
74657;DHT22;63185;45.642;13.764;2023-02-23T06:14:55;12.40;71.20
74657;DHT22;63185;45.642;13.764;2023-02-23T06:17:24;12.50;71.10
74657;DHT22;63185;45.642;13.764;2023-02-23T06:19:50;12.50;71.10
74657;DHT22;63185;45.642;13.764;2023-02-23T06:22:16;12.60;70.80
74657;DHT22;63185;45.642;13.764;2023-02-23T06:24:43;12.50;70.70
74657;DHT22;63185;45.642;13.764;2023-02-23T06:27:09;12.60;70.70
74657;DHT22;63185;45.642;13.764;2023-02-23T06:29:35;12.60;70.50
74657;DHT22;63185;45.642;13.764;2023-02-23T06:32:02;12.60;70.30
74657;DHT22;63185;45.642;13.764;2023-02-23T06:34:28;12.60;70.40
74657;DHT22;63185;45.642;13.764;2023-02-23T06:36:54;12.60;70.40
74657;DHT22;63185;45.642;13.764;2023-02-23T06:39:20;12.60;70.00
74657;DHT22;63185;45.642;13.764;2023-02-23T06:41:45;12.70;70.30
74657;DHT22;63185;45.642;13.764;2023-02-23T06:44:11;12.70;70.20
74657;DHT22;63185;45.642;13.764;2023-02-23T06:46:37;12.70;70.10
74657;DHT22;63185;45.642;13.764;2023-02-23T06:49:02;12.70;70.00
74657;DHT22;63185;45.642;13.764;2023-02-23T06:51:28;12.80;69.80
74657;DHT22;63185;45.642;13.764;2023-02-23T06:53:54;12.80;69.80
74657;DHT22;63185;45.642;13.764;2023-02-23T06:56:20;12.90;68.80
74657;DHT22;63185;45.642;13.764;2023-02-23T06:58:46;12.90;69.40
74657;DHT22;63185;45.642;13.764;2023-02-23T07:01:12;12.80;69.90
74657;DHT22;63185;45.642;13.764;2023-02-23T07:03:38;12.80;70.00
74657;DHT22;63185;45.642;13.764;2023-02-23T07:06:04;12.70;70.30
74657;DHT22;63185;45.642;13.764;2023-02-23T07:08:31;12.70;70.30
74657;DHT22;63185;45.642;13.764;2023-02-23T07:11:05;12.70;70.40
74657;DHT22;63185;45.642;13.764;2023-02-23T07:13:31;12.60;70.60
74657;DHT22;63185;45.642;13.764;2023-02-23T07:15:57;12.70;70.90
74657;DHT22;63185;45.642;13.764;2023-02-23T07:18:22;12.80;70.80
74657;DHT22;63185;45.642;13.764;2023-02-23T07:20:49;12.80;70.30
74657;DHT22;63185;45.642;13.764;2023-02-23T07:23:16;12.80;70.10
74657;DHT22;63185;45.642;13.764;2023-02-23T07:25:42;12.80;70.50
74657;DHT22;63185;45.642;13.764;2023-02-23T07:28:09;12.80;70.50
74657;DHT22;63185;45.642;13.764;2023-02-23T07:30:34;12.60;71.10
74657;DHT22;63185;45.642;13.764;2023-02-23T07:33:00;12.60;71.80
74657;DHT22;63185;45.642;13.764;2023-02-23T07:35:26;12.50;71.80
74657;DHT22;63185;45.642;13.764;2023-02-23T07:37:51;12.50;72.30
74657;DHT22;63185;45.642;13.764;2023-02-23T07:40:18;12.40;72.80
74657;DHT22;63185;45.642;13.764;2023-02-23T07:42:44;12.20;73.90
74657;DHT22;63185;45.642;13.764;2023-02-23T07:45:10;12.10;74.70
74657;DHT22;63185;45.642;13.764;2023-02-23T07:47:36;12.10;75.60
74657;DHT22;63185;45.642;13.764;2023-02-23T07:50:04;12.10;75.50
74657;DHT22;63185;45.642;13.764;2023-02-23T07:52:32;12.10;75.40
74657;DHT22;63185;45.642;13.764;2023-02-23T07:54:58;12.00;75.70
74657;DHT22;63185;45.642;13.764;2023-02-23T07:57:24;12.00;76.20
74657;DHT22;63185;45.642;13.764;2023-02-23T07:59:49;12.00;76.20
74657;DHT22;63185;45.642;13.764;2023-02-23T08:02:15;11.90;76.20
74657;DHT22;63185;45.642;13.764;2023-02-23T08:04:41;11.80;76.30
74657;DHT22;63185;45.642;13.764;2023-02-23T08:07:08;11.90;76.00
74657;DHT22;63185;45.642;13.764;2023-02-23T08:09:35;11.90;76.40
74657;DHT22;63185;45.642;13.764;2023-02-23T08:12:01;11.90;75.80
74657;DHT22;63185;45.642;13.764;2023-02-23T08:14:27;12.00;75.90
74657;DHT22;63185;45.642;13.764;2023-02-23T08:16:53;11.90;75.60
74657;DHT22;63185;45.642;13.764;2023-02-23T08:19:19;11.90;76.10
74657;DHT22;63185;45.642;13.764;2023-02-23T08:21:50;12.10;75.80
74657;DHT22;63185;45.642;13.764;2023-02-23T08:24:16;12.10;75.40
74657;DHT22;63185;45.642;13.764;2023-02-23T08:26:42;12.20;74.60
74657;DHT22;63185;45.642;13.764;2023-02-23T08:29:09;12.20;73.80
74657;DHT22;63185;45.642;13.764;2023-02-23T08:31:34;12.30;73.70
74657;DHT22;63185;45.642;13.764;2023-02-23T08:34:00;12.30;72.50
74657;DHT22;63185;45.642;13.764;2023-02-23T08:36:26;12.40;72.60
74657;DHT22;63185;45.642;13.764;2023-02-23T08:38:52;12.60;72.10
74657;DHT22;63185;45.642;13.764;2023-02-23T08:41:21;12.70;71.90
74657;DHT22;63185;45.642;13.764;2023-02-23T08:43:46;12.90;70.90
74657;DHT22;63185;45.642;13.764;2023-02-23T08:46:13;13.10;69.20
74657;DHT22;63185;45.642;13.764;2023-02-23T08:48:41;13.10;69.40
74657;DHT22;63185;45.642;13.764;2023-02-23T08:51:07;13.20;69.70
74657;DHT22;63185;45.642;13.764;2023-02-23T08:53:33;13.20;69.40
74657;DHT22;63185;45.642;13.764;2023-02-23T08:56:00;13.40;69.30
74657;DHT22;63185;45.642;13.764;2023-02-23T08:58:27;13.40;69.10
74657;DHT22;63185;45.642;13.764;2023-02-23T09:00:53;13.40;69.20
74657;DHT22;63185;45.642;13.764;2023-02-23T09:03:21;13.50;69.00
74657;DHT22;63185;45.642;13.764;2023-02-23T09:05:48;13.50;69.20
74657;DHT22;63185;45.642;13.764;2023-02-23T09:08:14;13.60;69.20
74657;DHT22;63185;45.642;13.764;2023-02-23T09:10:41;13.60;69.20
74657;DHT22;63185;45.642;13.764;2023-02-23T09:13:09;13.60;69.10
74657;DHT22;63185;45.642;13.764;2023-02-23T09:15:36;13.70;68.60
74657;DHT22;63185;45.642;13.764;2023-02-23T09:18:03;13.50;68.60
74657;DHT22;63185;45.642;13.764;2023-02-23T09:20:29;13.60;68.50
74657;DHT22;63185;45.642;13.764;2023-02-23T09:22:55;13.80;68.20
74657;DHT22;63185;45.642;13.764;2023-02-23T09:25:22;13.90;67.90
74657;DHT22;63185;45.642;13.764;2023-02-23T09:27:52;13.90;68.10
74657;DHT22;63185;45.642;13.764;2023-02-23T09:30:19;14.00;67.90
74657;DHT22;63185;45.642;13.764;2023-02-23T09:32:50;14.00;67.70
74657;DHT22;63185;45.642;13.764;2023-02-23T09:35:18;14.00;68.10
74657;DHT22;63185;45.642;13.764;2023-02-23T09:37:48;14.00;68.10
74657;DHT22;63185;45.642;13.764;2023-02-23T09:40:44;14.00;68.10
74657;DHT22;63185;45.642;13.764;2023-02-23T09:43:31;14.10;68.30
74657;DHT22;63185;45.642;13.764;2023-02-23T09:48:52;14.20;68.00
74657;DHT22;63185;45.642;13.764;2023-02-23T09:51:20;14.30;67.60
74657;DHT22;63185;45.642;13.764;2023-02-23T09:53:51;14.40;67.30
74657;DHT22;63185;45.642;13.764;2023-02-23T09:56:35;14.50;67.00
74657;DHT22;63185;45.642;13.764;2023-02-23T09:59:05;14.60;66.20
74657;DHT22;63185;45.642;13.764;2023-02-23T10:04:26;14.50;66.90
74657;DHT22;63185;45.642;13.764;2023-02-23T10:09:53;14.30;67.50
74657;DHT22;63185;45.642;13.764;2023-02-23T10:12:41;14.20;67.20
74657;DHT22;63185;45.642;13.764;2023-02-23T10:15:17;14.30;67.40
74657;DHT22;63185;45.642;13.764;2023-02-23T10:18:11;14.30;67.10
74657;DHT22;63185;45.642;13.764;2023-02-23T10:23:45;14.40;66.70
74657;DHT22;63185;45.642;13.764;2023-02-23T10:26:17;14.40;66.70
74657;DHT22;63185;45.642;13.764;2023-02-23T10:28:45;14.40;65.50
74657;DHT22;63185;45.642;13.764;2023-02-23T10:33:43;14.50;64.60
74657;DHT22;63185;45.642;13.764;2023-02-23T10:36:18;14.60;64.90
74657;DHT22;63185;45.642;13.764;2023-02-23T10:38:47;14.80;62.90
74657;DHT22;63185;45.642;13.764;2023-02-23T10:41:13;14.80;61.30
74657;DHT22;63185;45.642;13.764;2023-02-23T10:43:39;14.90;61.60
74657;DHT22;63185;45.642;13.764;2023-02-23T10:46:05;14.80;61.70
74657;DHT22;63185;45.642;13.764;2023-02-23T10:48:40;14.60;62.60
74657;DHT22;63185;45.642;13.764;2023-02-23T10:51:17;14.50;63.00
74657;DHT22;63185;45.642;13.764;2023-02-23T10:53:44;14.50;63.30
74657;DHT22;63185;45.642;13.764;2023-02-23T10:56:16;14.50;62.90
74657;DHT22;63185;45.642;13.764;2023-02-23T11:01:13;14.20;62.70
74657;DHT22;63185;45.642;13.764;2023-02-23T11:06:05;14.20;62.20
74657;DHT22;63185;45.642;13.764;2023-02-23T11:08:36;14.20;62.40
74657;DHT22;63185;45.642;13.764;2023-02-23T11:16:10;13.90;63.60
74657;DHT22;63185;45.642;13.764;2023-02-23T11:18:40;13.70;64.20
74657;DHT22;63185;45.642;13.764;2023-02-23T11:21:11;13.90;63.80
74657;DHT22;63185;45.642;13.764;2023-02-23T11:23:39;14.00;64.00
74657;DHT22;63185;45.642;13.764;2023-02-23T11:26:35;13.90;64.50
74657;DHT22;63185;45.642;13.764;2023-02-23T11:29:11;13.80;64.40
74657;DHT22;63185;45.642;13.764;2023-02-23T11:31:38;13.90;64.60
74657;DHT22;63185;45.642;13.764;2023-02-23T11:34:05;13.80;64.40
74657;DHT22;63185;45.642;13.764;2023-02-23T11:36:34;13.90;64.30
74657;DHT22;63185;45.642;13.764;2023-02-23T11:39:19;13.90;64.60
74657;DHT22;63185;45.642;13.764;2023-02-23T11:42:12;14.00;64.40
74657;DHT22;63185;45.642;13.764;2023-02-23T11:44:39;14.10;64.50
74657;DHT22;63185;45.642;13.764;2023-02-23T11:47:14;14.10;64.50
74657;DHT22;63185;45.642;13.764;2023-02-23T11:49:43;14.10;64.80
74657;DHT22;63185;45.642;13.764;2023-02-23T11:52:15;14.10;64.80
74657;DHT22;63185;45.642;13.764;2023-02-23T11:54:55;14.20;64.80
74657;DHT22;63185;45.642;13.764;2023-02-23T11:57:24;14.30;64.40
74657;DHT22;63185;45.642;13.764;2023-02-23T11:59:51;14.30;64.20
74657;DHT22;63185;45.642;13.764;2023-02-23T12:04:49;14.50;64.40
74657;DHT22;63185;45.642;13.764;2023-02-23T12:07:39;14.50;63.50
74657;DHT22;63185;45.642;13.764;2023-02-23T12:10:27;14.50;64.00
74657;DHT22;63185;45.642;13.764;2023-02-23T12:16:22;14.50;63.60
74657;DHT22;63185;45.642;13.764;2023-02-23T12:27:10;13.80;65.00
74657;DHT22;63185;45.642;13.764;2023-02-23T12:38:16;13.50;66.10
74657;DHT22;63185;45.642;13.764;2023-02-23T12:40:43;13.50;66.10
74657;DHT22;63185;45.642;13.764;2023-02-23T12:43:26;13.50;66.60
74657;DHT22;63185;45.642;13.764;2023-02-23T12:46:12;13.40;66.80
74657;DHT22;63185;45.642;13.764;2023-02-23T12:48:56;13.40;67.10
74657;DHT22;63185;45.642;13.764;2023-02-23T12:51:39;13.40;67.20
74657;DHT22;63185;45.642;13.764;2023-02-23T12:54:10;13.30;67.70
74657;DHT22;63185;45.642;13.764;2023-02-23T13:02:31;13.40;68.20
74657;DHT22;63185;45.642;13.764;2023-02-23T13:05:22;13.40;68.50
74657;DHT22;63185;45.642;13.764;2023-02-23T13:19:10;13.10;71.30
74657;DHT22;63185;45.642;13.764;2023-02-23T13:24:46;13.10;72.20
74657;DHT22;63185;45.642;13.764;2023-02-23T13:27:24;13.00;72.20
74657;DHT22;63185;45.642;13.764;2023-02-23T13:29:52;13.10;73.30
74657;DHT22;63185;45.642;13.764;2023-02-23T13:32:25;13.10;73.70
74657;DHT22;63185;45.642;13.764;2023-02-23T13:35:00;13.10;73.50
74657;DHT22;63185;45.642;13.764;2023-02-23T13:45:42;13.20;73.30
74657;DHT22;63185;45.642;13.764;2023-02-23T13:56:54;13.10;73.20
74657;DHT22;63185;45.642;13.764;2023-02-23T13:59:22;13.20;73.10
74657;DHT22;63185;45.642;13.764;2023-02-23T14:01:52;13.30;72.60
74657;DHT22;63185;45.642;13.764;2023-02-23T14:04:24;13.30;72.10
74657;DHT22;63185;45.642;13.764;2023-02-23T14:07:16;13.30;72.20
74657;DHT22;63185;45.642;13.764;2023-02-23T14:09:52;13.20;73.70
74657;DHT22;63185;45.642;13.764;2023-02-23T14:12:38;13.30;74.30
74657;DHT22;63185;45.642;13.764;2023-02-23T14:20:41;13.30;76.00
74657;DHT22;63185;45.642;13.764;2023-02-23T14:26:07;13.20;77.00
74657;DHT22;63185;45.642;13.764;2023-02-23T14:28:36;13.20;77.50
74657;DHT22;63185;45.642;13.764;2023-02-23T14:39:23;13.30;76.70
74657;DHT22;63185;45.642;13.764;2023-02-23T14:41:57;13.20;76.20
74657;DHT22;63185;45.642;13.764;2023-02-23T14:44:30;13.20;76.60
74657;DHT22;63185;45.642;13.764;2023-02-23T14:47:06;13.30;76.80
74657;DHT22;63185;45.642;13.764;2023-02-23T14:49:36;13.40;76.60
74657;DHT22;63185;45.642;13.764;2023-02-23T14:52:13;13.40;76.40
74657;DHT22;63185;45.642;13.764;2023-02-23T14:54:44;13.40;76.70
74657;DHT22;63185;45.642;13.764;2023-02-23T14:57:18;13.50;77.10
74657;DHT22;63185;45.642;13.764;2023-02-23T14:59:45;13.50;77.30
74657;DHT22;63185;45.642;13.764;2023-02-23T15:02:19;13.60;77.00
74657;DHT22;63185;45.642;13.764;2023-02-23T15:04:45;13.60;77.10
74657;DHT22;63185;45.642;13.764;2023-02-23T15:07:39;13.60;77.10
74657;DHT22;63185;45.642;13.764;2023-02-23T15:10:30;13.60;76.50
74657;DHT22;63185;45.642;13.764;2023-02-23T15:12:57;13.60;76.80
74657;DHT22;63185;45.642;13.764;2023-02-23T15:15:24;13.70;76.70
74657;DHT22;63185;45.642;13.764;2023-02-23T15:17:53;13.70;76.60
74657;DHT22;63185;45.642;13.764;2023-02-23T15:20:22;13.70;76.70
74657;DHT22;63185;45.642;13.764;2023-02-23T15:22:52;13.70;76.70
74657;DHT22;63185;45.642;13.764;2023-02-23T15:25:24;13.70;77.00
74657;DHT22;63185;45.642;13.764;2023-02-23T15:27:52;13.60;77.70
74657;DHT22;63185;45.642;13.764;2023-02-23T15:33:09;13.60;78.50
74657;DHT22;63185;45.642;13.764;2023-02-23T15:35:45;13.50;78.40
74657;DHT22;63185;45.642;13.764;2023-02-23T15:38:18;13.50;78.80
74657;DHT22;63185;45.642;13.764;2023-02-23T15:40:45;13.50;78.80
74657;DHT22;63185;45.642;13.764;2023-02-23T15:43:11;13.50;78.80
74657;DHT22;63185;45.642;13.764;2023-02-23T15:45:48;13.40;79.20
74657;DHT22;63185;45.642;13.764;2023-02-23T15:48:18;13.50;79.30
74657;DHT22;63185;45.642;13.764;2023-02-23T15:50:56;13.40;79.40
74657;DHT22;63185;45.642;13.764;2023-02-23T15:53:41;13.40;79.40
74657;DHT22;63185;45.642;13.764;2023-02-23T15:56:13;13.40;79.40
74657;DHT22;63185;45.642;13.764;2023-02-23T15:58:48;13.30;79.40
74657;DHT22;63185;45.642;13.764;2023-02-23T16:01:26;13.30;79.50
74657;DHT22;63185;45.642;13.764;2023-02-23T16:06:33;13.30;79.50
74657;DHT22;63185;45.642;13.764;2023-02-23T16:11:34;13.10;79.80
74657;DHT22;63185;45.642;13.764;2023-02-23T16:14:02;13.10;79.90
74657;DHT22;63185;45.642;13.764;2023-02-23T16:16:29;13.10;80.00
74657;DHT22;63185;45.642;13.764;2023-02-23T16:18:59;13.10;80.00
74657;DHT22;63185;45.642;13.764;2023-02-23T16:21:28;13.10;79.90
74657;DHT22;63185;45.642;13.764;2023-02-23T16:23:59;13.20;80.10
74657;DHT22;63185;45.642;13.764;2023-02-23T16:26:44;13.20;79.80
74657;DHT22;63185;45.642;13.764;2023-02-23T16:29:14;13.20;79.70
74657;DHT22;63185;45.642;13.764;2023-02-23T16:31:49;13.10;79.80
74657;DHT22;63185;45.642;13.764;2023-02-23T16:34:47;13.10;80.00
74657;DHT22;63185;45.642;13.764;2023-02-23T16:37:24;13.10;80.00
74657;DHT22;63185;45.642;13.764;2023-02-23T16:39:51;13.20;79.90
74657;DHT22;63185;45.642;13.764;2023-02-23T16:42:23;13.20;79.80
74657;DHT22;63185;45.642;13.764;2023-02-23T16:44:50;13.20;79.80
74657;DHT22;63185;45.642;13.764;2023-02-23T16:49:50;13.10;80.20
74657;DHT22;63185;45.642;13.764;2023-02-23T16:52:21;13.10;79.90
74657;DHT22;63185;45.642;13.764;2023-02-23T16:54:48;13.10;79.80
74657;DHT22;63185;45.642;13.764;2023-02-23T16:57:20;13.10;79.90
74657;DHT22;63185;45.642;13.764;2023-02-23T16:59:50;13.10;79.80
74657;DHT22;63185;45.642;13.764;2023-02-23T17:02:17;13.10;79.70
74657;DHT22;63185;45.642;13.764;2023-02-23T17:04:44;13.10;79.60
74657;DHT22;63185;45.642;13.764;2023-02-23T17:07:15;13.10;79.60
74657;DHT22;63185;45.642;13.764;2023-02-23T17:09:41;13.10;79.40
74657;DHT22;63185;45.642;13.764;2023-02-23T17:12:13;13.10;79.30
74657;DHT22;63185;45.642;13.764;2023-02-23T17:14:43;13.10;78.90
74657;DHT22;63185;45.642;13.764;2023-02-23T17:17:18;13.10;79.40
74657;DHT22;63185;45.642;13.764;2023-02-23T17:19:44;13.00;79.60
74657;DHT22;63185;45.642;13.764;2023-02-23T17:22:11;13.00;79.90
74657;DHT22;63185;45.642;13.764;2023-02-23T17:24:38;12.90;79.90
74657;DHT22;63185;45.642;13.764;2023-02-23T17:27:04;12.90;80.10
74657;DHT22;63185;45.642;13.764;2023-02-23T17:29:31;12.90;80.20
74657;DHT22;63185;45.642;13.764;2023-02-23T17:31:57;12.80;80.30
74657;DHT22;63185;45.642;13.764;2023-02-23T17:34:24;12.80;80.40
74657;DHT22;63185;45.642;13.764;2023-02-23T17:36:51;12.70;80.50
74657;DHT22;63185;45.642;13.764;2023-02-23T17:39:17;12.70;80.70
74657;DHT22;63185;45.642;13.764;2023-02-23T17:41:43;12.60;80.70
74657;DHT22;63185;45.642;13.764;2023-02-23T17:44:09;12.60;80.80
74657;DHT22;63185;45.642;13.764;2023-02-23T17:46:35;12.60;80.80
74657;DHT22;63185;45.642;13.764;2023-02-23T17:49:01;12.60;80.70
74657;DHT22;63185;45.642;13.764;2023-02-23T17:51:27;12.50;80.90
74657;DHT22;63185;45.642;13.764;2023-02-23T17:53:53;12.50;80.90
74657;DHT22;63185;45.642;13.764;2023-02-23T17:56:19;12.50;81.00
74657;DHT22;63185;45.642;13.764;2023-02-23T17:58:46;12.50;81.00
74657;DHT22;63185;45.642;13.764;2023-02-23T18:01:12;12.40;81.10
74657;DHT22;63185;45.642;13.764;2023-02-23T18:03:38;12.40;81.00
74657;DHT22;63185;45.642;13.764;2023-02-23T18:06:06;12.40;81.00
74657;DHT22;63185;45.642;13.764;2023-02-23T18:08:33;12.40;81.00
74657;DHT22;63185;45.642;13.764;2023-02-23T18:10:59;12.30;80.80
74657;DHT22;63185;45.642;13.764;2023-02-23T18:13:27;12.20;81.00
74657;DHT22;63185;45.642;13.764;2023-02-23T18:15:57;12.30;80.90
74657;DHT22;63185;45.642;13.764;2023-02-23T18:18:24;12.20;80.90
74657;DHT22;63185;45.642;13.764;2023-02-23T18:20:55;12.20;80.80